createdAt,value
2024-02-13T00:00:34.349Z,11.37
2024-02-13T00:03:01.367Z,9.33
2024-02-13T00:05:28.453Z,10.13
2024-02-13T00:07:56.840Z,8.47
2024-02-13T00:10:24.946Z,9.87
2024-02-13T00:12:52.428Z,7.90
2024-02-13T00:15:21.516Z,9.30
2024-02-13T00:17:49.305Z,8.70
2024-02-13T00:20:16.593Z,9.23
2024-02-13T00:22:43.595Z,6.00
2024-02-13T00:25:10.871Z,11.70
2024-02-13T00:27:37.873Z,4.27
2024-02-13T00:30:06.144Z,6.57
2024-02-13T00:32:33.908Z,6.57
2024-02-13T00:35:02.887Z,7.93
2024-02-13T00:37:30.004Z,5.80
2024-02-13T00:39:56.873Z,4.43
2024-02-13T00:42:23.709Z,5.87
2024-02-13T00:44:51.254Z,6.50
2024-02-13T00:47:19.737Z,6.77
2024-02-13T00:49:47.079Z,6.17
2024-02-13T00:52:14.046Z,5.97
2024-02-13T00:54:40.922Z,4.93
2024-02-13T00:57:07.833Z,8.43
2024-02-13T00:59:34.741Z,6.10
2024-02-13T01:02:01.615Z,5.53
2024-02-13T01:04:28.732Z,8.33
2024-02-13T01:06:56.485Z,6.03
2024-02-13T01:09:23.535Z,5.80
2024-02-13T01:11:50.488Z,5.27
2024-02-13T01:14:18.963Z,6.50
2024-02-13T01:16:46.195Z,4.17
2024-02-13T01:19:14.205Z,6.20
2024-02-13T01:21:41.989Z,5.20
2024-02-13T01:24:08.817Z,5.17
2024-02-13T01:26:36.266Z,6.77
2024-02-13T01:29:03.263Z,5.67
2024-02-13T01:31:33.619Z,5.60
2024-02-13T01:34:01.122Z,6.77
2024-02-13T01:36:29.095Z,7.70
2024-02-13T01:38:59.314Z,7.90
2024-02-13T01:41:27.353Z,7.37
2024-02-13T01:43:54.312Z,8.07
2024-02-13T01:46:21.973Z,8.77
2024-02-13T01:48:49.577Z,6.57
2024-02-13T01:51:16.904Z,10.87
2024-02-13T01:53:44.210Z,8.67
2024-02-13T01:56:11.874Z,5.83
2024-02-13T01:58:39.764Z,7.23
2024-02-13T02:01:07.914Z,6.37
2024-02-13T02:03:36.562Z,6.93
2024-02-13T02:06:05.018Z,9.30
2024-02-13T02:08:32.808Z,6.93
2024-02-13T02:10:59.967Z,4.77
2024-02-13T02:13:30.577Z,4.27
2024-02-13T02:15:58.636Z,6.00
2024-02-13T02:18:26.058Z,4.57
2024-02-13T02:20:53.373Z,4.83
2024-02-13T02:23:20.710Z,5.43
2024-02-13T02:25:48.366Z,4.23
2024-02-13T02:28:16.575Z,3.27
2024-02-13T02:30:44.053Z,4.67
2024-02-13T02:33:11.195Z,4.90
2024-02-13T02:35:38.259Z,4.50
2024-02-13T02:38:05.231Z,3.57
2024-02-13T02:40:32.159Z,3.37
2024-02-13T02:43:00.839Z,3.27
2024-02-13T02:45:28.953Z,2.27
2024-02-13T02:47:56.391Z,3.33
2024-02-13T02:50:23.826Z,5.07
2024-02-13T02:52:54.134Z,3.83
2024-02-13T02:55:22.692Z,2.77
2024-02-13T02:57:50.384Z,3.23
2024-02-13T03:00:20.056Z,2.60
2024-02-13T03:02:47.535Z,5.17
2024-02-13T03:05:14.861Z,3.93
2024-02-13T03:07:41.838Z,4.97
2024-02-13T03:10:11.618Z,2.53
2024-02-13T03:12:42.137Z,3.47
2024-02-13T03:15:09.530Z,2.90
2024-02-13T03:17:39.279Z,6.33
2024-02-13T03:20:12.076Z,2.70
2024-02-13T03:22:40.062Z,2.60
2024-02-13T03:25:07.701Z,2.60
2024-02-13T03:27:34.685Z,2.07
2024-02-13T03:30:01.670Z,2.17
2024-02-13T03:32:28.812Z,1.97
2024-02-13T03:34:56.041Z,2.37
2024-02-13T03:37:23.189Z,2.90
2024-02-13T03:39:50.234Z,2.37
2024-02-13T03:42:17.667Z,4.77
2024-02-13T03:44:45.390Z,2.07
2024-02-13T03:47:13.015Z,3.57
2024-02-13T03:49:40.303Z,2.27
2024-02-13T03:52:07.810Z,1.20
2024-02-13T03:54:34.981Z,1.20
2024-02-13T03:57:02.403Z,1.40
2024-02-13T03:59:32.130Z,1.83
2024-02-13T04:02:00.304Z,1.73
2024-02-13T04:04:27.236Z,1.20
2024-02-13T04:06:54.160Z,1.10
2024-02-13T04:09:21.286Z,1.50
2024-02-13T04:11:48.466Z,1.40
2024-02-13T04:14:15.533Z,2.60
2024-02-13T04:16:42.857Z,4.77
2024-02-13T04:19:10.286Z,2.13
2024-02-13T04:21:39.165Z,1.90
2024-02-13T04:24:09.237Z,1.30
2024-02-13T04:26:43.069Z,3.53
2024-02-13T04:29:10.219Z,1.90
2024-02-13T04:31:39.526Z,1.70
2024-02-13T04:34:07.708Z,1.60
2024-02-13T04:36:35.189Z,3.77
2024-02-13T04:39:02.189Z,1.50
2024-02-13T04:41:29.140Z,1.20
2024-02-13T04:43:56.158Z,2.13
2024-02-13T04:46:26.748Z,1.30
2024-02-13T04:48:54.671Z,1.17
2024-02-13T04:51:22.025Z,1.30
2024-02-13T04:53:49.268Z,1.20
2024-02-13T04:56:17.123Z,1.10
2024-02-13T04:58:45.276Z,2.50
2024-02-13T05:01:15.144Z,1.27
2024-02-13T05:03:48.077Z,2.80
2024-02-13T05:06:33.974Z,0.93
2024-02-13T05:09:01.160Z,1.77
2024-02-13T05:11:28.222Z,1.10
2024-02-13T05:13:57.564Z,1.20
2024-02-13T05:16:28.096Z,1.13
2024-02-13T05:18:56.011Z,1.50
2024-02-13T05:21:22.942Z,1.10
2024-02-13T05:23:50.478Z,0.90
2024-02-13T05:26:21.556Z,2.00
2024-02-13T05:28:51.681Z,0.90
2024-02-13T05:31:20.348Z,2.20
2024-02-13T05:33:47.607Z,2.33
2024-02-13T05:36:16.650Z,1.23
2024-02-13T05:38:45.274Z,1.77
2024-02-13T05:41:12.535Z,6.03
2024-02-13T05:43:41.985Z,1.30
2024-02-13T05:46:09.345Z,2.27
2024-02-13T05:48:41.403Z,1.60
2024-02-13T05:51:12.210Z,1.40
2024-02-13T05:53:39.607Z,2.90
2024-02-13T05:56:08.238Z,2.60
2024-02-13T05:58:35.251Z,2.33
2024-02-13T06:01:02.457Z,1.30
2024-02-13T06:03:30.464Z,1.87
2024-02-13T06:05:57.458Z,1.60
2024-02-13T06:08:24.826Z,1.77
2024-02-13T06:10:51.859Z,1.73
2024-02-13T06:13:18.958Z,1.70
2024-02-13T06:15:45.767Z,2.53
2024-02-13T06:18:13.433Z,1.90
2024-02-13T06:20:40.616Z,1.57
2024-02-13T06:23:07.777Z,2.77
2024-02-13T06:25:34.944Z,2.27
2024-02-13T06:28:01.894Z,7.87
2024-02-13T06:30:29.584Z,3.50
2024-02-13T06:32:56.766Z,2.93
2024-02-13T06:35:23.828Z,3.13
2024-02-13T06:37:51.407Z,4.20
2024-02-13T06:40:18.456Z,2.83
2024-02-13T06:42:45.491Z,3.37
2024-02-13T06:45:13.356Z,3.27
2024-02-13T06:47:40.373Z,2.43
2024-02-13T06:50:14.310Z,3.87
2024-02-13T06:52:42.472Z,3.77
2024-02-13T06:55:10.009Z,3.00
2024-02-13T06:57:37.567Z,3.80
2024-02-13T07:00:12.754Z,3.23
2024-02-13T07:02:40.260Z,3.30
2024-02-13T07:05:07.560Z,3.77
2024-02-13T07:07:42.295Z,3.43
2024-02-13T07:10:14.867Z,3.73
2024-02-13T07:12:42.164Z,2.23
2024-02-13T07:15:09.865Z,2.87
2024-02-13T07:17:48.262Z,3.37
2024-02-13T07:20:24.171Z,4.43
2024-02-13T07:22:52.026Z,6.80
2024-02-13T07:25:19.179Z,4.53
2024-02-13T07:27:47.932Z,3.50
2024-02-13T07:30:15.964Z,2.83
2024-02-13T07:32:43.710Z,3.23
2024-02-13T07:35:10.994Z,4.33
2024-02-13T07:37:38.021Z,3.43
2024-02-13T07:40:05.694Z,4.20
2024-02-13T07:42:32.715Z,3.33
2024-02-13T07:45:00.288Z,4.83
2024-02-13T07:47:28.491Z,3.83
2024-02-13T07:49:56.377Z,7.20
2024-02-13T07:52:23.441Z,4.17
2024-02-13T07:54:50.586Z,3.73
2024-02-13T07:57:18.437Z,5.73
2024-02-13T07:59:46.231Z,4.47
2024-02-13T08:02:16.694Z,3.70
2024-02-13T08:04:45.040Z,7.07
2024-02-13T08:07:12.870Z,6.00
2024-02-13T08:09:40.730Z,7.03
2024-02-13T08:12:08.346Z,4.47
2024-02-13T08:14:36.629Z,6.57
2024-02-13T08:17:10.020Z,4.67
2024-02-13T08:19:42.076Z,4.70
2024-02-13T08:22:09.475Z,10.63
2024-02-13T08:24:37.048Z,8.93
2024-02-13T08:27:04.875Z,7.17
2024-02-13T08:29:32.279Z,5.53
2024-02-13T08:31:59.332Z,8.07
2024-02-13T08:34:26.812Z,7.33
2024-02-13T08:36:55.529Z,14.27
2024-02-13T08:39:22.624Z,8.90
2024-02-13T08:41:49.958Z,13.57
2024-02-13T08:44:18.062Z,10.73
2024-02-13T08:46:45.175Z,11.60
2024-02-13T08:49:13.303Z,13.40
2024-02-13T08:51:40.840Z,10.00
2024-02-13T08:54:12.617Z,12.80
2024-02-13T08:56:40.940Z,13.87
2024-02-13T08:59:09.359Z,10.37
2024-02-13T09:01:36.566Z,10.27
2024-02-13T09:04:04.078Z,12.00
2024-02-13T09:06:33.738Z,11.07
2024-02-13T09:09:01.923Z,12.97
2024-02-13T09:11:32.179Z,9.33
2024-02-13T09:13:59.223Z,11.90
2024-02-13T09:16:26.055Z,8.33
2024-02-13T09:18:56.773Z,10.67
2024-02-13T09:21:24.587Z,8.97
2024-02-13T09:23:51.933Z,8.30
2024-02-13T09:26:19.018Z,9.37
2024-02-13T09:28:46.515Z,11.60
2024-02-13T09:31:13.787Z,12.60
2024-02-13T09:33:41.495Z,7.43
2024-02-13T09:36:09.714Z,9.13
2024-02-13T09:38:42.245Z,8.50
2024-02-13T09:41:11.304Z,8.80
2024-02-13T09:43:42.901Z,6.83
2024-02-13T09:46:14.297Z,8.23
2024-02-13T09:48:43.192Z,13.10
2024-02-13T09:51:10.830Z,8.00
2024-02-13T09:53:41.891Z,10.17
2024-02-13T09:56:15.365Z,9.33
2024-02-13T09:58:43.860Z,8.57
2024-02-13T10:01:10.779Z,8.70
2024-02-13T10:03:38.293Z,10.93
2024-02-13T10:06:07.100Z,8.63
2024-02-13T10:08:39.324Z,12.13
2024-02-13T10:11:17.065Z,14.80
2024-02-13T10:13:47.318Z,11.20
2024-02-13T10:16:27.179Z,11.67
2024-02-13T10:18:56.161Z,10.63
2024-02-13T10:21:27.885Z,10.03
2024-02-13T10:24:16.902Z,11.80
2024-02-13T10:26:44.356Z,10.83
2024-02-13T10:29:11.496Z,7.90
2024-02-13T10:31:41.796Z,12.73
2024-02-13T10:34:13.085Z,8.37
2024-02-13T10:36:44.409Z,10.80
2024-02-13T10:39:13.773Z,11.33
2024-02-13T10:41:46.271Z,12.23
2024-02-13T10:44:15.439Z,11.53
2024-02-13T10:46:44.927Z,12.00
2024-02-13T10:49:35.740Z,13.77
2024-02-13T10:52:06.671Z,14.03
2024-02-13T10:54:38.850Z,10.50
2024-02-13T10:57:08.380Z,11.93
2024-02-13T10:59:36.797Z,12.27
2024-02-13T11:02:06.073Z,15.23
2024-02-13T11:04:34.279Z,9.43
2024-02-13T11:07:01.973Z,19.90
2024-02-13T11:09:29.356Z,11.10
2024-02-13T11:11:57.241Z,11.03
2024-02-13T11:14:25.172Z,8.13
2024-02-13T11:16:59.755Z,9.00
2024-02-13T11:19:40.352Z,9.13
2024-02-13T11:22:10.138Z,14.52
2024-02-13T11:24:50.968Z,13.90
2024-02-13T11:27:27.666Z,10.80
2024-02-13T11:30:01.546Z,10.23
2024-02-13T11:32:39.480Z,12.13
2024-02-13T11:35:12.829Z,5.55
2024-02-13T11:37:42.999Z,4.13
2024-02-13T11:40:14.487Z,5.30
2024-02-13T11:42:43.075Z,4.43
2024-02-13T11:45:21.706Z,7.20
2024-02-13T11:47:50.722Z,5.40
2024-02-13T11:50:20.738Z,6.93
2024-02-13T11:52:49.273Z,9.50
2024-02-13T11:55:16.323Z,7.93
2024-02-13T11:57:46.357Z,7.97
2024-02-13T12:00:20.217Z,10.80
2024-02-13T12:02:50.823Z,7.20
2024-02-13T12:05:20.826Z,5.30
2024-02-13T12:07:48.292Z,10.37
2024-02-13T12:10:16.312Z,6.07
2024-02-13T12:12:43.683Z,11.77
2024-02-13T12:15:12.255Z,10.77
2024-02-13T12:17:39.514Z,14.80
2024-02-13T12:20:13.736Z,6.97
2024-02-13T12:22:45.822Z,8.07
2024-02-13T12:25:13.963Z,7.37
2024-02-13T12:27:40.903Z,11.47
2024-02-13T12:30:12.560Z,6.77
2024-02-13T12:32:39.794Z,11.07
2024-02-13T12:35:23.266Z,5.67
2024-02-13T12:37:53.324Z,6.87
2024-02-13T12:40:21.670Z,6.40
2024-02-13T12:42:48.803Z,7.50
2024-02-13T12:45:19.230Z,5.63
2024-02-13T12:47:46.911Z,9.17
2024-02-13T12:50:17.394Z,5.40
2024-02-13T12:52:44.761Z,8.63
2024-02-13T12:55:14.444Z,7.50
2024-02-13T12:57:42.073Z,6.57
2024-02-13T13:00:15.940Z,6.87
2024-02-13T13:02:44.898Z,13.40
2024-02-13T13:05:15.827Z,9.87
2024-02-13T13:07:47.284Z,13.32
2024-02-13T13:10:20.924Z,6.28
2024-02-13T13:12:48.445Z,6.00
2024-02-13T13:15:19.926Z,3.40
2024-02-13T13:17:52.777Z,5.83
2024-02-13T13:20:20.191Z,5.57
2024-02-13T13:22:49.132Z,3.87
2024-02-13T13:25:25.578Z,5.97
2024-02-13T13:27:53.196Z,4.70
2024-02-13T13:30:21.202Z,3.87
2024-02-13T13:32:49.998Z,6.00
2024-02-13T13:35:21.554Z,4.13
2024-02-13T13:37:51.955Z,6.77
2024-02-13T13:40:18.822Z,6.87
2024-02-13T13:42:46.044Z,6.20
2024-02-13T13:45:16.570Z,3.30
2024-02-13T13:47:44.657Z,7.90
2024-02-13T13:50:14.884Z,7.20
2024-02-13T13:52:42.378Z,6.47
2024-02-13T13:55:09.458Z,14.23
2024-02-13T13:57:37.458Z,11.43
2024-02-13T14:00:10.404Z,8.80
2024-02-13T14:02:40.898Z,6.37
2024-02-13T14:05:08.257Z,8.60
2024-02-13T14:07:35.538Z,7.17
2024-02-13T14:10:02.988Z,7.93
2024-02-13T14:12:30.363Z,6.13
2024-02-13T14:15:00.392Z,5.73
2024-02-13T14:17:27.379Z,7.93
2024-02-13T14:19:54.947Z,11.07
2024-02-13T14:22:21.952Z,8.63
2024-02-13T14:24:49.062Z,5.33
2024-02-13T14:27:16.460Z,6.03
2024-02-13T14:29:44.188Z,6.33
2024-02-13T14:32:11.974Z,6.53
2024-02-13T14:34:38.958Z,5.70
2024-02-13T14:37:07.437Z,8.07
2024-02-13T14:39:34.856Z,3.90
2024-02-13T14:42:04.184Z,5.03
2024-02-13T14:44:34.321Z,6.37
2024-02-13T14:47:05.304Z,5.70
2024-02-13T14:49:33.882Z,6.37
2024-02-13T14:52:06.172Z,4.97
2024-02-13T14:54:34.602Z,3.80
2024-02-13T14:57:01.777Z,4.83
2024-02-13T14:59:28.995Z,5.37
2024-02-13T15:01:56.408Z,5.53
2024-02-13T15:04:23.681Z,8.50
2024-02-13T15:06:50.897Z,5.10
2024-02-13T15:09:20.069Z,5.07
2024-02-13T15:11:47.348Z,6.77
2024-02-13T15:14:14.982Z,4.83
2024-02-13T15:16:41.889Z,6.13
2024-02-13T15:19:08.894Z,2.77
2024-02-13T15:21:35.904Z,6.37
2024-02-13T15:24:05.197Z,4.23
2024-02-13T15:26:32.723Z,4.87
2024-02-13T15:28:59.954Z,6.03
2024-02-13T15:31:26.837Z,4.63
2024-02-13T15:33:54.944Z,2.07
2024-02-13T15:36:34.435Z,2.60
2024-02-13T15:39:19.945Z,4.67
2024-02-13T15:42:05.635Z,5.37
2024-02-13T15:44:51.771Z,2.20
2024-02-13T15:47:18.736Z,2.47
2024-02-13T15:49:46.283Z,6.63
2024-02-13T15:52:15.346Z,3.53
2024-02-13T15:54:42.855Z,4.23
2024-02-13T15:57:10.433Z,4.77
2024-02-13T15:59:37.394Z,5.03
2024-02-13T16:02:06.827Z,5.77
2024-02-13T16:04:38.154Z,5.30
2024-02-13T16:07:06.535Z,4.50
2024-02-13T16:09:33.461Z,4.70
2024-02-13T16:12:02.120Z,5.70
2024-02-13T16:14:29.165Z,5.83
2024-02-13T16:16:58.170Z,6.33
2024-02-13T16:19:27.190Z,6.93
2024-02-13T16:21:55.846Z,4.17
2024-02-13T16:24:22.737Z,4.20
2024-02-13T16:26:54.479Z,5.60
2024-02-13T16:29:23.623Z,7.70
2024-02-13T16:31:54.632Z,7.70
2024-02-13T16:34:22.740Z,5.23
2024-02-13T16:36:49.741Z,7.33
2024-02-13T16:39:18.991Z,6.63
2024-02-13T16:41:50.189Z,5.03
2024-02-13T16:44:20.108Z,5.90
2024-02-13T16:46:49.769Z,5.57
2024-02-13T16:49:17.255Z,3.37
2024-02-13T16:51:44.346Z,6.50
2024-02-13T16:54:12.014Z,7.27
2024-02-13T16:56:38.965Z,7.13
2024-02-13T16:59:05.858Z,6.40
2024-02-13T17:01:33.006Z,5.57
2024-02-13T17:04:02.093Z,10.53
2024-02-13T17:06:32.006Z,6.73
2024-02-13T17:09:01.689Z,9.20
2024-02-13T17:11:29.082Z,8.00
2024-02-13T17:13:56.560Z,7.00
2024-02-13T17:16:23.386Z,9.93
2024-02-13T17:18:50.515Z,7.20
2024-02-13T17:21:18.029Z,7.60
2024-02-13T17:23:45.240Z,7.97
2024-02-13T17:26:17.649Z,9.13
2024-02-13T17:28:44.532Z,8.53
2024-02-13T17:31:11.502Z,9.27
2024-02-13T17:33:38.775Z,6.03
2024-02-13T17:36:06.031Z,7.77
2024-02-13T17:38:34.595Z,8.27
2024-02-13T17:41:02.824Z,7.63
2024-02-13T17:43:31.608Z,11.10
2024-02-13T17:45:58.593Z,10.20
2024-02-13T17:48:25.582Z,8.47
2024-02-13T17:50:52.645Z,8.53
2024-02-13T17:53:19.500Z,15.23
2024-02-13T17:55:46.445Z,7.73
2024-02-13T17:58:14.778Z,9.67
2024-02-13T18:00:45.079Z,9.53
2024-02-13T18:03:12.461Z,8.57
2024-02-13T18:05:39.738Z,9.97
2024-02-13T18:08:07.509Z,10.63
2024-02-13T18:10:34.638Z,8.00
2024-02-13T18:13:01.674Z,15.63
2024-02-13T18:15:28.739Z,13.30
2024-02-13T18:17:57.243Z,16.67
2024-02-13T18:20:25.521Z,14.73
2024-02-13T18:22:52.977Z,17.63
2024-02-13T18:25:19.924Z,16.53
2024-02-13T18:27:46.812Z,13.80
2024-02-13T18:30:14.100Z,14.40
2024-02-13T18:32:42.546Z,12.67
2024-02-13T18:35:10.854Z,15.00
2024-02-13T18:37:41.993Z,17.47
2024-02-13T18:40:11.765Z,13.90
2024-02-13T18:42:39.571Z,12.17
2024-02-13T18:45:09.796Z,10.90
2024-02-13T18:47:37.310Z,11.13
2024-02-13T18:50:05.606Z,16.03
2024-02-13T18:52:32.584Z,15.90
2024-02-13T18:54:59.491Z,14.70
2024-02-13T18:57:26.414Z,12.73
2024-02-13T18:59:53.410Z,13.87
2024-02-13T19:02:21.289Z,10.67
2024-02-13T19:04:48.959Z,13.87
2024-02-13T19:07:16.372Z,15.23
2024-02-13T19:09:44.277Z,12.90
2024-02-13T19:12:11.195Z,15.40
2024-02-13T19:14:38.145Z,11.70
2024-02-13T19:17:06.739Z,14.33
2024-02-13T19:19:34.418Z,8.93
2024-02-13T19:22:01.803Z,9.60
2024-02-13T19:24:28.684Z,11.63
2024-02-13T19:26:56.202Z,16.80
2024-02-13T19:29:23.105Z,11.17
2024-02-13T19:31:50.997Z,13.23
2024-02-13T19:34:19.101Z,11.57
2024-02-13T19:36:46.858Z,10.73
2024-02-13T19:39:15.812Z,11.83
2024-02-13T19:41:46.422Z,14.97
2024-02-13T19:44:14.251Z,10.43
2024-02-13T19:46:42.376Z,11.80
2024-02-13T19:49:11.605Z,9.23
2024-02-13T19:51:39.439Z,12.50
2024-02-13T19:54:06.955Z,15.10
2024-02-13T19:56:34.358Z,16.80
2024-02-13T19:59:01.453Z,12.37
2024-02-13T20:01:28.367Z,12.27
2024-02-13T20:03:55.715Z,10.43
2024-02-13T20:06:24.100Z,15.63
2024-02-13T20:08:51.935Z,13.20
2024-02-13T20:11:19.130Z,15.87
2024-02-13T20:13:46.135Z,10.23
2024-02-13T20:16:13.100Z,13.30
2024-02-13T20:18:40.160Z,14.63
2024-02-13T20:21:07.724Z,13.83
2024-02-13T20:23:36.949Z,15.80
2024-02-13T20:26:04.117Z,13.97
2024-02-13T20:28:33.187Z,10.67
2024-02-13T20:31:00.181Z,9.73
2024-02-13T20:33:31.859Z,10.73
2024-02-13T20:36:03.768Z,13.53
2024-02-13T20:38:31.824Z,11.33
2024-02-13T20:40:58.985Z,9.67
2024-02-13T20:43:28.192Z,12.97
2024-02-13T20:45:55.122Z,11.70
2024-02-13T20:48:22.347Z,9.53
2024-02-13T20:50:49.401Z,8.20
2024-02-13T20:53:16.624Z,12.27
2024-02-13T20:55:44.858Z,15.23
2024-02-13T20:58:15.215Z,13.03
2024-02-13T21:00:43.481Z,12.23
2024-02-13T21:03:11.124Z,11.43
2024-02-13T21:05:39.459Z,15.73
2024-02-13T21:08:06.719Z,12.47
2024-02-13T21:10:33.982Z,10.70
2024-02-13T21:13:00.935Z,14.77
2024-02-13T21:15:27.899Z,10.80
2024-02-13T21:17:54.964Z,13.80
2024-02-13T21:20:28.715Z,11.67
2024-02-13T21:23:14.029Z,12.40
2024-02-13T21:25:41.069Z,14.47
2024-02-13T21:28:07.903Z,12.23
2024-02-13T21:30:35.706Z,12.97
2024-02-13T21:33:02.640Z,17.27
2024-02-13T21:35:29.556Z,16.70
2024-02-13T21:37:56.474Z,15.20
2024-02-13T21:40:23.559Z,13.17
2024-02-13T21:42:50.567Z,12.07
2024-02-13T21:45:17.574Z,11.77
2024-02-13T21:47:45.665Z,12.60
2024-02-13T21:50:13.234Z,12.97
2024-02-13T21:52:40.146Z,13.73
2024-02-13T21:55:07.638Z,19.03
2024-02-13T21:57:34.533Z,10.20
2024-02-13T22:00:06.157Z,13.40
2024-02-13T22:02:33.991Z,11.13
2024-02-13T22:05:01.225Z,15.73
2024-02-13T22:07:28.367Z,13.30
2024-02-13T22:09:57.677Z,14.90
2024-02-13T22:12:25.290Z,12.80
2024-02-13T22:14:52.349Z,13.80
2024-02-13T22:17:19.364Z,14.63
2024-02-13T22:19:46.499Z,11.60
2024-02-13T22:22:13.894Z,11.97
2024-02-13T22:24:40.719Z,16.87
2024-02-13T22:27:07.798Z,11.73
2024-02-13T22:29:35.050Z,11.73
2024-02-13T22:32:02.122Z,13.53
2024-02-13T22:34:29.240Z,11.60
2024-02-13T22:36:56.248Z,13.07
2024-02-13T22:39:23.190Z,10.90
2024-02-13T22:41:50.167Z,12.77
2024-02-13T22:44:20.453Z,12.23
2024-02-13T22:46:47.429Z,11.83
2024-02-13T22:49:14.729Z,13.80
2024-02-13T22:51:44.937Z,14.57
2024-02-13T22:54:12.416Z,14.47
2024-02-13T22:56:39.704Z,15.73
2024-02-13T22:59:07.267Z,14.90
2024-02-13T23:01:35.440Z,14.20
2024-02-13T23:04:05.171Z,15.50
2024-02-13T23:06:32.473Z,12.27
2024-02-13T23:09:00.694Z,14.20
2024-02-13T23:11:27.890Z,10.67
2024-02-13T23:13:55.593Z,16.30
2024-02-13T23:16:24.531Z,13.37
2024-02-13T23:18:51.959Z,14.33
2024-02-13T23:21:19.699Z,11.40
2024-02-13T23:23:46.674Z,15.53
2024-02-13T23:26:13.977Z,10.10
2024-02-13T23:28:49.061Z,13.60
2024-02-13T23:31:23.125Z,12.13
2024-02-13T23:33:50.317Z,15.43
2024-02-13T23:36:17.456Z,11.27
2024-02-13T23:38:46.908Z,10.00
2024-02-13T23:41:14.399Z,16.47
2024-02-13T23:43:41.465Z,13.83
2024-02-13T23:46:08.458Z,13.17
2024-02-13T23:48:38.107Z,14.00
2024-02-13T23:51:05.834Z,12.77
2024-02-13T23:53:33.010Z,13.80
2024-02-13T23:56:00.734Z,12.00
2024-02-13T23:58:28.533Z,12.33
